createdAt,value
2023-02-07T00:04:13.748Z,3.00
2023-02-07T00:06:41.887Z,4.55
2023-02-07T00:09:10.924Z,9.23
2023-02-07T00:11:40.650Z,2.72
2023-02-07T00:14:10.878Z,7.57
2023-02-07T00:16:38.958Z,8.10
2023-02-07T00:19:06.372Z,10.43
2023-02-07T00:21:33.752Z,9.52
2023-02-07T00:24:02.037Z,12.48
2023-02-07T00:26:29.551Z,6.75
2023-02-07T00:28:57.471Z,8.73
2023-02-07T00:31:33.396Z,9.35
2023-02-07T00:34:04.054Z,6.28
2023-02-07T00:36:33.206Z,5.75
2023-02-07T00:39:04.644Z,7.63
2023-02-07T00:41:32.062Z,3.65
2023-02-07T00:44:00.692Z,10.07
2023-02-07T00:46:28.077Z,3.38
2023-02-07T00:48:55.749Z,7.20
2023-02-07T00:51:25.682Z,4.05
2023-02-07T00:56:28.872Z,3.60
2023-02-07T00:58:58.949Z,4.03
2023-02-07T01:01:27.503Z,10.07
2023-02-07T01:03:57.070Z,5.45
2023-02-07T01:06:25.466Z,16.77
2023-02-07T01:09:06.921Z,4.38
2023-02-07T01:11:50.461Z,6.40
2023-02-07T01:14:20.609Z,2.90
2023-02-07T01:16:48.348Z,4.53
2023-02-07T01:19:16.090Z,4.60
2023-02-07T01:21:43.397Z,3.45
2023-02-07T01:24:11.203Z,5.88
2023-02-07T01:26:39.416Z,7.25
2023-02-07T01:29:07.971Z,3.60
2023-02-07T01:31:35.748Z,9.85
2023-02-07T01:34:05.532Z,4.70
2023-02-07T01:36:33.575Z,3.70
2023-02-07T01:39:01.201Z,7.68
2023-02-07T01:41:28.541Z,8.43
2023-02-07T01:43:57.402Z,4.70
2023-02-07T01:46:25.967Z,3.88
2023-02-07T01:48:56.257Z,10.52
2023-02-07T01:54:00.030Z,3.38
2023-02-07T01:56:32.095Z,10.10
2023-02-07T01:59:04.270Z,4.70
2023-02-07T02:01:31.686Z,2.78
2023-02-07T02:03:59.164Z,3.40
2023-02-07T02:06:30.786Z,6.93
2023-02-07T02:09:00.417Z,2.95
2023-02-07T02:11:36.727Z,3.67
2023-02-07T02:14:18.585Z,4.20
2023-02-07T02:17:00.427Z,2.10
2023-02-07T02:19:43.085Z,9.18
2023-02-07T02:26:18.721Z,4.03
2023-02-07T02:29:22.429Z,1.17
2023-02-07T02:32:14.011Z,4.40
2023-02-07T02:35:06.149Z,5.95
2023-02-07T02:37:33.763Z,3.80
2023-02-07T02:40:28.734Z,7.05
2023-02-07T02:43:11.753Z,8.02
2023-02-07T02:45:58.812Z,2.70
2023-02-07T02:48:29.381Z,4.63
2023-02-07T02:51:07.559Z,5.35
2023-02-07T02:53:39.716Z,3.58
2023-02-07T02:56:33.680Z,3.78
2023-02-07T02:59:38.184Z,4.68
2023-02-07T03:02:18.029Z,8.73
2023-02-07T03:05:23.037Z,6.60
2023-02-07T03:08:18.844Z,6.43
2023-02-07T03:10:55.145Z,5.97
2023-02-07T03:13:32.405Z,8.48
2023-02-07T03:16:15.305Z,5.90
2023-02-07T03:19:09.923Z,7.25
2023-02-07T03:21:58.684Z,6.13
2023-02-07T03:24:33.135Z,5.70
2023-02-07T03:27:06.166Z,7.78
2023-02-07T03:29:37.045Z,9.02
2023-02-07T03:32:06.612Z,5.53
2023-02-07T03:34:50.997Z,9.13
2023-02-07T03:37:27.725Z,5.82
2023-02-07T03:39:55.191Z,13.68
2023-02-07T03:42:30.637Z,7.68
2023-02-07T03:44:59.141Z,4.53
2023-02-07T03:47:27.897Z,9.43
2023-02-07T03:49:55.353Z,12.88
2023-02-07T03:52:22.649Z,2.85
2023-02-07T03:54:49.901Z,6.47
2023-02-07T03:57:17.294Z,4.60
2023-02-07T03:59:50.562Z,12.13
2023-02-07T04:02:18.513Z,9.32
2023-02-07T04:04:45.850Z,7.43
2023-02-07T04:12:40.204Z,2.97
2023-02-07T04:15:08.341Z,5.20
2023-02-07T04:17:50.100Z,6.32
2023-02-07T04:20:32.828Z,8.45
2023-02-07T04:23:15.259Z,9.35
2023-02-07T04:29:08.098Z,3.28
2023-02-07T04:31:37.758Z,5.38
2023-02-07T04:34:13.033Z,2.95
2023-02-07T04:36:40.438Z,4.30
2023-02-07T04:39:07.685Z,8.57
2023-02-07T04:41:34.886Z,7.53
2023-02-07T04:44:02.096Z,4.70
2023-02-07T04:46:30.413Z,5.80
2023-02-07T04:48:57.664Z,3.90
2023-02-07T04:51:24.849Z,8.05
2023-02-07T04:53:52.075Z,6.10
2023-02-07T04:56:23.389Z,4.95
2023-02-07T04:58:51.265Z,3.03
2023-02-07T05:01:18.589Z,3.65
2023-02-07T05:03:45.885Z,4.97
2023-02-07T05:06:13.250Z,6.80
2023-02-07T05:08:40.543Z,5.18
2023-02-07T05:11:07.799Z,2.67
2023-02-07T05:13:35.344Z,3.55
2023-02-07T05:16:04.681Z,6.85
2023-02-07T05:18:35.845Z,3.70
2023-02-07T05:21:03.543Z,5.15
2023-02-07T05:23:30.798Z,11.75
2023-02-07T05:26:00.865Z,2.00
2023-02-07T05:28:28.135Z,2.78
2023-02-07T05:30:58.556Z,3.20
2023-02-07T05:33:27.107Z,3.33
2023-02-07T05:35:54.739Z,6.32
2023-02-07T05:38:22.913Z,3.53
2023-02-07T05:40:52.696Z,6.47
2023-02-07T05:43:20.981Z,6.85
2023-02-07T05:45:48.376Z,6.25
2023-02-07T05:48:15.737Z,7.22
2023-02-07T05:50:42.950Z,2.20
2023-02-07T05:53:10.932Z,5.63
2023-02-07T05:55:38.622Z,6.72
2023-02-07T05:58:06.159Z,3.10
2023-02-07T06:00:33.719Z,5.40
2023-02-07T06:03:03.221Z,9.73
2023-02-07T06:05:31.940Z,5.22
2023-02-07T06:07:59.608Z,2.90
2023-02-07T06:10:26.854Z,3.55
2023-02-07T06:12:54.083Z,7.97
2023-02-07T06:15:21.412Z,7.80
2023-02-07T06:17:49.945Z,6.10
2023-02-07T06:20:17.414Z,3.38
2023-02-07T06:22:44.672Z,5.82
2023-02-07T06:25:13.975Z,4.30
2023-02-07T06:27:41.941Z,16.08
2023-02-07T06:30:11.818Z,7.53
2023-02-07T06:32:43.292Z,17.45
2023-02-07T06:35:10.582Z,4.90
2023-02-07T06:37:37.782Z,3.60
2023-02-07T06:40:05.435Z,7.75
2023-02-07T06:42:32.674Z,5.50
2023-02-07T06:44:59.878Z,9.50
2023-02-07T06:47:27.132Z,13.88
2023-02-07T06:49:54.340Z,5.00
2023-02-07T06:52:21.550Z,6.47
2023-02-07T06:54:48.779Z,7.57
2023-02-07T06:57:16.001Z,4.90
2023-02-07T06:59:45.235Z,7.07
2023-02-07T07:02:12.662Z,2.53
2023-02-07T07:04:40.190Z,12.20
2023-02-07T07:07:07.432Z,8.90
2023-02-07T07:09:35.783Z,3.08
2023-02-07T07:12:04.644Z,4.88
2023-02-07T07:14:32.606Z,6.72
2023-02-07T07:17:00.239Z,3.80
2023-02-07T07:19:27.955Z,4.95
2023-02-07T07:21:55.468Z,6.05
2023-02-07T07:24:22.708Z,3.47
2023-02-07T07:26:50.307Z,4.43
2023-02-07T07:29:18.599Z,0.77
2023-02-07T07:31:46.955Z,2.47
2023-02-07T07:34:14.924Z,6.20
2023-02-07T07:36:42.181Z,2.78
2023-02-07T07:39:10.624Z,2.28
2023-02-07T07:41:38.001Z,5.05
2023-02-07T07:44:05.368Z,3.58
2023-02-07T07:46:32.628Z,3.13
2023-02-07T07:49:00.006Z,7.03
2023-02-07T07:51:27.217Z,4.22
2023-02-07T07:53:54.453Z,3.80
2023-02-07T07:56:21.658Z,4.00
2023-02-07T07:58:50.084Z,3.53
2023-02-07T08:01:17.403Z,3.28
2023-02-07T08:03:44.658Z,3.25
2023-02-07T08:06:11.891Z,4.43
2023-02-07T08:08:39.208Z,8.73
2023-02-07T08:11:09.036Z,4.22
2023-02-07T08:13:37.203Z,3.92
2023-02-07T08:16:08.632Z,5.60
2023-02-07T08:18:35.921Z,8.20
2023-02-07T08:21:03.481Z,6.65
2023-02-07T08:23:30.755Z,5.65
2023-02-07T08:25:59.360Z,5.43
2023-02-07T08:28:27.391Z,7.30
2023-02-07T08:30:55.051Z,4.32
2023-02-07T08:33:22.394Z,3.13
2023-02-07T08:35:50.950Z,6.72
2023-02-07T08:38:18.503Z,7.25
2023-02-07T08:40:46.856Z,8.02
2023-02-07T08:43:15.156Z,6.43
2023-02-07T08:45:47.509Z,6.95
2023-02-07T08:48:15.212Z,11.27
2023-02-07T08:50:42.645Z,7.60
2023-02-07T08:53:10.093Z,7.15
2023-02-07T08:55:40.975Z,8.88
2023-02-07T08:58:10.560Z,4.90
2023-02-07T09:00:38.453Z,5.07
2023-02-07T09:03:06.239Z,9.00
2023-02-07T09:05:33.709Z,9.23
2023-02-07T09:08:02.167Z,10.00
2023-02-07T09:10:29.725Z,7.53
2023-02-07T09:12:56.961Z,6.15
2023-02-07T09:15:24.450Z,7.53
2023-02-07T09:17:51.751Z,6.40
2023-02-07T09:20:19.164Z,11.70
2023-02-07T09:23:04.925Z,9.40
2023-02-07T09:25:32.278Z,5.22
2023-02-07T09:27:59.732Z,7.43
2023-02-07T09:30:27.112Z,4.37
2023-02-07T09:32:54.377Z,11.20
2023-02-07T09:35:21.597Z,13.15
2023-02-07T09:37:50.139Z,10.02
2023-02-07T09:40:19.477Z,9.73
2023-02-07T09:43:03.956Z,7.93
2023-02-07T09:45:38.166Z,11.90
2023-02-07T09:48:15.621Z,11.25
2023-02-07T09:50:50.717Z,9.88
2023-02-07T09:53:43.052Z,7.35
2023-02-07T09:56:11.152Z,8.98
2023-02-07T09:58:51.339Z,13.40
2023-02-07T10:01:29.298Z,10.20
2023-02-07T10:04:18.635Z,11.75
2023-02-07T10:06:50.344Z,8.60
2023-02-07T10:09:20.350Z,8.25
2023-02-07T10:12:03.058Z,8.82
2023-02-07T10:14:53.850Z,9.65
2023-02-07T10:17:31.877Z,9.02
2023-02-07T10:20:24.160Z,12.48
2023-02-07T10:23:23.788Z,12.80
2023-02-07T10:26:15.108Z,16.48
2023-02-07T10:28:48.370Z,11.38
2023-02-07T10:31:18.649Z,13.35
2023-02-07T10:33:56.418Z,8.80
2023-02-07T10:36:24.994Z,13.40
2023-02-07T10:39:12.418Z,18.40
2023-02-07T10:41:44.153Z,15.15
2023-02-07T10:44:17.863Z,11.23
2023-02-07T10:46:47.486Z,13.20
2023-02-07T10:49:26.030Z,15.15
2023-02-07T10:51:59.838Z,15.38
2023-02-07T10:54:27.267Z,19.38
2023-02-07T10:57:02.842Z,21.35
2023-02-07T10:59:46.031Z,9.75
2023-02-07T11:02:28.777Z,16.52
2023-02-07T11:04:58.441Z,10.85
2023-02-07T11:07:26.382Z,18.38
2023-02-07T11:10:16.539Z,21.90
2023-02-07T11:12:54.482Z,12.82
2023-02-07T11:15:27.168Z,16.65
2023-02-07T11:17:56.776Z,19.13
2023-02-07T11:20:35.332Z,17.30
2023-02-07T11:23:08.022Z,9.88
2023-02-07T11:25:41.868Z,22.17
2023-02-07T11:28:20.222Z,19.75
2023-02-07T11:30:51.969Z,18.25
2023-02-07T11:33:23.497Z,19.90
2023-02-07T11:36:23.286Z,19.70
2023-02-07T11:39:01.076Z,24.58
2023-02-07T11:41:32.490Z,24.63
2023-02-07T11:44:02.162Z,25.73
2023-02-07T11:49:18.314Z,12.70
2023-02-07T11:51:45.898Z,20.50
2023-02-07T11:54:15.413Z,16.90
2023-02-07T11:56:48.063Z,16.10
2023-02-07T11:59:19.159Z,10.77
2023-02-07T12:01:52.354Z,20.25
2023-02-07T12:04:26.650Z,14.82
2023-02-07T12:06:59.219Z,17.77
2023-02-07T12:09:40.733Z,19.35
2023-02-07T12:12:15.356Z,23.13
2023-02-07T12:14:54.051Z,15.57
2023-02-07T12:17:29.304Z,21.90
2023-02-07T12:20:05.216Z,19.08
2023-02-07T12:25:24.264Z,11.68
2023-02-07T12:27:55.710Z,19.60
2023-02-07T12:30:41.914Z,14.50
2023-02-07T12:33:20.936Z,16.88
2023-02-07T12:36:15.081Z,19.48
2023-02-07T12:38:52.906Z,11.05
2023-02-07T12:41:37.754Z,12.82
2023-02-07T12:44:29.692Z,12.38
2023-02-07T12:47:23.234Z,16.83
2023-02-07T12:50:12.120Z,17.02
2023-02-07T12:53:07.523Z,18.05
2023-02-07T12:56:04.665Z,13.85
2023-02-07T12:59:00.295Z,20.13
2023-02-07T13:01:45.067Z,19.48
2023-02-07T13:04:12.339Z,13.00
2023-02-07T13:06:57.991Z,18.38
2023-02-07T13:09:57.740Z,19.35
2023-02-07T13:12:38.928Z,14.07
2023-02-07T13:15:09.033Z,17.90
2023-02-07T13:17:50.334Z,15.68
2023-02-07T13:20:40.902Z,21.25
2023-02-07T13:23:20.662Z,18.63
2023-02-07T13:25:53.262Z,13.80
2023-02-07T13:28:30.348Z,14.60
2023-02-07T13:30:59.309Z,17.83
2023-02-07T13:33:37.058Z,19.50
2023-02-07T13:36:30.380Z,17.75
2023-02-07T13:39:19.982Z,14.32
2023-02-07T13:42:12.253Z,18.33
2023-02-07T13:44:54.147Z,11.30
2023-02-07T13:47:34.006Z,14.98
2023-02-07T13:50:04.639Z,14.73
2023-02-07T13:52:38.194Z,20.00
2023-02-07T13:55:17.354Z,19.58
2023-02-07T13:58:03.553Z,24.20
2023-02-07T14:00:36.479Z,22.58
2023-02-07T14:03:09.180Z,21.55
2023-02-07T14:05:41.904Z,20.52
2023-02-07T14:08:18.154Z,18.90
2023-02-07T14:10:50.569Z,24.67
2023-02-07T14:13:33.499Z,18.45
2023-02-07T14:16:08.993Z,18.95
2023-02-07T14:18:38.439Z,33.60
2023-02-07T14:21:20.937Z,21.15
2023-02-07T14:23:57.228Z,24.83
2023-02-07T14:26:40.727Z,26.00
2023-02-07T14:29:31.319Z,21.00
2023-02-07T14:32:01.127Z,22.90
2023-02-07T14:34:32.255Z,21.55
2023-02-07T14:37:00.467Z,19.98
2023-02-07T14:39:33.323Z,26.02
2023-02-07T14:42:21.861Z,14.68
2023-02-07T14:44:50.998Z,24.83
2023-02-07T14:47:26.507Z,18.75
2023-02-07T14:49:57.606Z,21.25
2023-02-07T14:52:32.686Z,20.08
2023-02-07T14:55:12.581Z,24.38
2023-02-07T14:57:54.199Z,18.38
2023-02-07T15:00:32.552Z,16.58
2023-02-07T15:03:06.809Z,15.75
2023-02-07T15:05:37.169Z,20.90
2023-02-07T15:08:04.352Z,14.60
2023-02-07T15:10:34.729Z,19.63
2023-02-07T15:13:31.312Z,15.38
2023-02-07T15:16:15.794Z,17.10
2023-02-07T15:19:11.718Z,26.80
2023-02-07T15:21:43.250Z,16.75
2023-02-07T15:24:45.963Z,23.23
2023-02-07T15:27:29.686Z,22.45
2023-02-07T15:30:05.334Z,21.90
2023-02-07T15:32:43.554Z,24.67
2023-02-07T15:35:23.351Z,30.33
2023-02-07T15:37:51.142Z,20.13
2023-02-07T15:40:21.884Z,19.45
2023-02-07T15:42:57.382Z,16.25
2023-02-07T15:45:26.554Z,21.52
2023-02-07T15:48:09.645Z,31.95
2023-02-07T15:50:40.342Z,17.23
2023-02-07T15:53:09.155Z,16.77
2023-02-07T15:55:43.770Z,17.38
2023-02-07T15:58:29.092Z,21.15
2023-02-07T16:01:04.061Z,21.83
2023-02-07T16:03:36.269Z,17.75
2023-02-07T16:06:15.548Z,14.90
2023-02-07T16:08:46.977Z,11.48
2023-02-07T16:11:27.647Z,16.85
2023-02-07T16:14:18.179Z,14.23
2023-02-07T16:16:53.770Z,13.70
2023-02-07T16:19:29.382Z,13.05
2023-02-07T16:22:15.201Z,15.80
2023-02-07T16:24:49.789Z,19.88
2023-02-07T16:27:26.268Z,15.23
2023-02-07T16:29:58.210Z,21.95
2023-02-07T16:32:29.038Z,18.35
2023-02-07T16:34:59.862Z,22.02
2023-02-07T16:37:28.625Z,23.85
2023-02-07T16:39:59.031Z,19.80
2023-02-07T16:42:26.234Z,20.70
2023-02-07T16:44:53.939Z,15.32
2023-02-07T16:47:25.213Z,16.02
2023-02-07T16:49:52.467Z,17.08
2023-02-07T16:52:19.775Z,13.60
2023-02-07T16:54:51.078Z,17.33
2023-02-07T16:57:20.406Z,14.18
2023-02-07T16:59:51.212Z,22.05
2023-02-07T17:02:50.453Z,13.98
2023-02-07T17:05:18.955Z,17.33
2023-02-07T17:07:47.291Z,17.63
2023-02-07T17:10:32.330Z,16.08
2023-02-07T17:12:59.612Z,20.80
2023-02-07T17:15:26.905Z,20.10
2023-02-07T17:17:58.076Z,21.95
2023-02-07T17:20:31.129Z,11.88
2023-02-07T17:23:00.308Z,21.45
2023-02-07T17:25:32.703Z,20.92
2023-02-07T17:28:01.071Z,15.05
2023-02-07T17:30:32.982Z,13.75
2023-02-07T17:33:00.243Z,22.75
2023-02-07T17:35:27.486Z,22.25
2023-02-07T17:37:55.834Z,14.30
2023-02-07T17:40:38.789Z,20.98
2023-02-07T17:43:07.671Z,17.20
2023-02-07T17:45:37.658Z,15.25
2023-02-07T17:48:05.358Z,23.58
2023-02-07T17:50:40.849Z,19.35
2023-02-07T17:53:09.671Z,31.23
2023-02-07T17:55:38.204Z,25.40
2023-02-07T17:58:06.522Z,19.98
2023-02-07T18:00:37.660Z,19.60
2023-02-07T18:03:06.059Z,9.98
2023-02-07T18:05:34.501Z,17.67
2023-02-07T18:08:02.285Z,16.60
2023-02-07T18:10:32.258Z,12.48
2023-02-07T18:13:00.122Z,17.35
2023-02-07T18:15:27.874Z,12.82
2023-02-07T18:17:55.236Z,15.93
2023-02-07T18:20:25.509Z,35.67
2023-02-07T18:22:55.585Z,15.75
2023-02-07T18:25:24.519Z,29.92
2023-02-07T18:27:52.264Z,20.38
2023-02-07T18:30:21.636Z,30.02
2023-02-07T18:32:50.943Z,31.60
2023-02-07T18:35:19.930Z,19.02
2023-02-07T18:37:47.365Z,13.82
2023-02-07T18:40:15.732Z,16.35
2023-02-07T18:42:43.579Z,26.23
2023-02-07T18:45:13.471Z,21.42
2023-02-07T18:47:41.746Z,22.92
2023-02-07T18:50:11.140Z,18.42
2023-02-07T18:52:38.944Z,16.00
2023-02-07T18:55:06.488Z,19.65
2023-02-07T18:57:34.879Z,12.02
2023-02-07T19:00:03.696Z,23.88
2023-02-07T19:02:30.959Z,21.42
2023-02-07T19:04:58.719Z,15.30
2023-02-07T19:07:25.984Z,16.80
2023-02-07T19:09:53.282Z,18.80
2023-02-07T19:12:21.547Z,17.55
2023-02-07T19:14:48.800Z,16.60
2023-02-07T19:17:16.295Z,12.40
2023-02-07T19:19:43.598Z,19.45
2023-02-07T19:22:10.825Z,19.05
2023-02-07T19:24:38.118Z,19.30
2023-02-07T19:27:07.072Z,12.57
2023-02-07T19:29:34.291Z,12.80
2023-02-07T19:32:04.476Z,21.25
2023-02-07T19:34:32.414Z,11.60
2023-02-07T19:36:59.919Z,15.02
2023-02-07T19:39:27.207Z,15.10
2023-02-07T19:41:57.659Z,16.33
2023-02-07T19:44:24.888Z,20.65
2023-02-07T19:46:52.175Z,21.83
2023-02-07T19:49:19.389Z,17.42
2023-02-07T19:51:54.014Z,11.07
2023-02-07T19:54:23.242Z,15.18
2023-02-07T19:56:50.469Z,19.00
2023-02-07T19:59:18.875Z,18.60
2023-02-07T20:01:46.134Z,17.17
2023-02-07T20:04:13.646Z,21.85
2023-02-07T20:06:40.979Z,21.90
2023-02-07T20:09:08.711Z,18.77
2023-02-07T20:11:39.150Z,14.63
2023-02-07T20:14:07.786Z,15.77
2023-02-07T20:16:37.252Z,21.55
2023-02-07T20:19:07.150Z,11.60
2023-02-07T20:24:02.800Z,9.63
2023-02-07T20:26:36.616Z,9.52
2023-02-07T20:29:10.130Z,12.43
2023-02-07T20:31:39.052Z,15.00
2023-02-07T20:34:07.864Z,11.50
2023-02-07T20:36:40.828Z,16.50
2023-02-07T20:39:14.747Z,14.25
2023-02-07T20:41:43.149Z,8.88
2023-02-07T20:44:16.884Z,21.02
2023-02-07T20:46:46.537Z,12.75
2023-02-07T20:49:19.523Z,13.80
2023-02-07T20:51:51.785Z,12.80
2023-02-07T20:54:23.042Z,13.70
2023-02-07T20:56:51.969Z,20.27
2023-02-07T20:59:21.983Z,14.73
2023-02-07T21:01:49.563Z,9.70
2023-02-07T21:04:17.165Z,18.35
2023-02-07T21:06:45.116Z,23.98
2023-02-07T21:09:13.698Z,11.75
2023-02-07T21:11:47.323Z,13.43
2023-02-07T21:14:17.447Z,19.35
2023-02-07T21:16:45.519Z,18.17
2023-02-07T21:19:13.431Z,22.05
2023-02-07T21:21:40.956Z,17.85
2023-02-07T21:24:08.588Z,7.53
2023-02-07T21:26:35.916Z,27.73
2023-02-07T21:29:04.637Z,16.42
2023-02-07T21:31:34.774Z,19.98
2023-02-07T21:34:03.553Z,18.42
2023-02-07T21:36:33.698Z,24.75
2023-02-07T21:39:04.830Z,15.35
2023-02-07T21:41:33.245Z,26.90
2023-02-07T21:44:05.069Z,25.63
2023-02-07T21:46:35.923Z,22.50
2023-02-07T21:49:06.298Z,16.95
2023-02-07T21:51:35.911Z,14.95
2023-02-07T21:54:07.239Z,19.60
2023-02-07T21:56:37.323Z,17.30
2023-02-07T21:59:18.728Z,19.67
2023-02-07T22:01:46.904Z,19.05
2023-02-07T22:04:14.747Z,17.33
2023-02-07T22:06:43.889Z,10.00
2023-02-07T22:09:16.954Z,6.75
2023-02-07T22:11:44.615Z,11.85
2023-02-07T22:14:13.009Z,29.33
2023-02-07T22:16:40.335Z,19.75
2023-02-07T22:19:10.854Z,15.80
2023-02-07T22:21:38.398Z,23.75
2023-02-07T22:24:06.681Z,9.95
2023-02-07T22:26:34.823Z,20.58
2023-02-07T22:29:03.338Z,14.57
2023-02-07T22:31:32.294Z,24.15
2023-02-07T22:34:02.546Z,22.17
2023-02-07T22:36:32.355Z,23.35
2023-02-07T22:39:01.212Z,31.67
2023-02-07T22:41:30.205Z,25.23
2023-02-07T22:43:57.845Z,17.05
2023-02-07T22:46:25.410Z,19.33
2023-02-07T22:48:53.481Z,15.07
2023-02-07T22:51:34.040Z,12.15
2023-02-07T22:54:12.974Z,18.23
2023-02-07T22:56:40.285Z,15.93
2023-02-07T22:59:07.804Z,15.98
2023-02-07T23:01:39.026Z,14.77
2023-02-07T23:04:15.291Z,12.45
2023-02-07T23:06:46.837Z,14.63
2023-02-07T23:09:14.682Z,17.73
2023-02-07T23:11:42.227Z,8.25
2023-02-07T23:14:09.440Z,23.67
2023-02-07T23:16:36.927Z,13.00
2023-02-07T23:19:07.808Z,10.95
2023-02-07T23:21:35.353Z,17.45
2023-02-07T23:24:04.585Z,14.35
2023-02-07T23:26:32.560Z,14.68
2023-02-07T23:29:00.113Z,4.65
2023-02-07T23:31:27.583Z,9.35
2023-02-07T23:33:55.060Z,15.40
2023-02-07T23:36:23.608Z,20.48
2023-02-07T23:38:51.849Z,27.73
2023-02-07T23:41:19.223Z,16.05
2023-02-07T23:43:46.722Z,14.82
2023-02-07T23:46:15.583Z,11.75
2023-02-07T23:48:52.014Z,12.90
2023-02-07T23:51:19.626Z,17.58
2023-02-07T23:53:49.174Z,18.23
2023-02-07T23:56:20.349Z,19.00
2023-02-07T23:58:48.469Z,27.40
